Crystal Serenity — C6SY3 — position and weather

sailwx.info

Track history (hours):
 
Tides and Currents Weather Stations Pressure Air Temp Water Temp Dewpoint Dewpoint Depression Visibility Wind Speed Wind Dir Waves Ship Positions

Crystal Serenity

Operator: Crystal Cruises

Last reported at 2017-Sep-21 11:00 UTC. Time now 2017-Sep-22 06:27 UTC.
Position N 44°18' W 068°06'.

Length 250 m; draft 7.5 m.

Type: Passenger vessel. MMSI: 311536000.

Wind from 040 at 15 knots

Barometer 1017.0 mb
Air temperature 17.0 ° C
Visibility: greater than 5.4 NM
Water temperature 14.0 ° C

Date/timePositionNaut miles runAvg speedWind from/ knotsBaromVisibWave heightAir tempDewpointWater temp
2017-Sep-21 11:00N 44°18' W 068°06'98 3.9 040 / 151017.0 5.4 17.0 14.0
2017-Sep-20 10:00N 43°24' W 070°00'622.0 040 / 251017.0 0.5 17.0 18.0
2017-Sep-20 09:44N 43°19' W 069°58'1813.0
2017-Sep-20 08:22N 43°01' W 069°56'513.1
2017-Sep-20 08:00N 42°56' W 069°59'713.0
2017-Sep-20 07:26N 42°52' W 070°07'613.2
2017-Sep-20 07:00N 42°49' W 070°13'713.5
2017-Sep-20 06:30N 42°44' W 070°19'713.4
2017-Sep-20 06:00N 42°39' W 070°25'713.4
2017-Sep-20 05:30N 42°34' W 070°32'713.4
2017-Sep-20 05:00N 42°30' W 070°39'713.3
2017-Sep-20 04:30N 42°26' W 070°46'611.3
2017-Sep-20 04:01N 42°23' W 070°53'611.4
2017-Sep-20 03:30N 42°20' W 070°59'2 3.5
2017-Sep-20 03:00N 42°21' W 071°02'0 0.0
2017-Sep-20 02:30N 42°21' W 071°02'0 0.0
2017-Sep-20 02:00N 42°21' W 071°02'0 0.0
2017-Sep-20 01:30N 42°21' W 071°02'0 0.0
2017-Sep-20 01:00N 42°21' W 071°02'0 0.0
2017-Sep-20 00:30N 42°21' W 071°02'0 0.0
2017-Sep-20 00:00N 42°21' W 071°02'0 0.0
2017-Sep-19 23:30N 42°21' W 071°02'0 0.0
2017-Sep-19 23:00N 42°21' W 071°02'31149.6
2017-Sep-19 23:00N 42°18' W 071°00'3 5.8 030 / 101017.0 2.2 17.0 17.0
2017-Sep-19 22:30N 42°21' W 071°02'0 0.0
2017-Sep-19 22:00N 42°21' W 071°02'31034.6
2017-Sep-19 22:00N 42°18' W 071°00'3 5.8 1017.0 5.4 18.0 17.0
2017-Sep-19 21:30N 42°21' W 071°02'0 0.0
2017-Sep-19 21:00N 42°21' W 071°02'0 0.0
2017-Sep-19 20:30N 42°21' W 071°02'0 0.0
2017-Sep-19 20:00N 42°21' W 071°02'0 0.0
2017-Sep-19 19:30N 42°21' W 071°02'0 0.0
2017-Sep-19 19:00N 42°21' W 071°02'31148.8
2017-Sep-19 19:00N 42°18' W 071°00'3 5.8 1017.0
2017-Sep-19 18:30N 42°21' W 071°02'0 0.0
2017-Sep-19 18:00N 42°21' W 071°02'0 0.0
2017-Sep-19 17:30N 42°21' W 071°02'0 0.0
2017-Sep-19 17:00N 42°21' W 071°02'0 0.0
2017-Sep-19 16:30N 42°21' W 071°02'0 0.0
2017-Sep-19 16:00N 42°21' W 071°02'0 0.0
2017-Sep-19 15:30N 42°21' W 071°02'0 0.0
2017-Sep-19 14:59N 42°21' W 071°02'0 0.0
2017-Sep-19 14:29N 42°21' W 071°02'0 0.0
2017-Sep-19 13:59N 42°21' W 071°02'0 0.0
2017-Sep-19 13:26N 42°21' W 071°02'0 0.0
2017-Sep-19 12:56N 42°21' W 071°02'0 0.0
2017-Sep-19 12:29N 42°21' W 071°02'0 0.0
2017-Sep-19 12:01N 42°21' W 071°02'1 1.8
2017-Sep-19 11:31N 42°20' W 071°00'510.2
2017-Sep-19 11:01N 42°23' W 070°54'3 6.3
2017-Sep-19 10:31N 42°24' W 070°50'510.4
2017-Sep-19 10:00N 42°23' W 070°43'510.8
2017-Sep-19 09:30N 42°22' W 070°36'510.6
2017-Sep-19 09:00N 42°22' W 070°29'510.3
2017-Sep-19 08:31N 42°21' W 070°22'510.0
2017-Sep-19 08:01N 42°20' W 070°15'4209.1
2017-Sep-19 08:00N 42°18' W 070°12'3 6.3 030 / 141020.0 2.2 18.0 20.0
2017-Sep-19 07:30N 42°20' W 070°09'5 9.7
2017-Sep-19 07:00N 42°20' W 070°02'510.0
2017-Sep-19 06:29N 42°20' W 069°55'810.1
2017-Sep-19 05:43N 42°20' W 069°45'210.1
2017-Sep-19 05:29N 42°18' W 069°43'5 8.3
2017-Sep-19 04:55N 42°13' W 069°42'510.1
2017-Sep-19 04:27N 42°11' W 069°48'610.2
2017-Sep-19 03:54N 42°08' W 069°54'4 9.5
2017-Sep-19 03:27N 42°07' W 069°60'510.2
2017-Sep-19 03:00N 42°08' W 070°06'510.0
2017-Sep-19 02:27N 42°07' W 070°13'4 9.5
2017-Sep-19 02:00N 42°05' W 070°18'6 2.5
2017-Sep-18 23:32N 42°02' W 070°10'0 0.2
2017-Sep-18 23:29N 42°02' W 070°10'4 8.1
2017-Sep-18 23:00N 42°00' W 070°06'418.1 080 / 151019.0 0.5 19.0 20.0
2017-Sep-18 22:47N 42°02' W 070°10'0 0.0
2017-Sep-18 21:50N 42°02' W 070°10'0 0.0
2017-Sep-18 21:26N 42°02' W 070°10'4 1.1
2017-Sep-18 18:00N 42°00' W 070°06'7 0.9 080 / 131021.0 20.0 21.0
2017-Sep-18 10:00N 42°06' W 070°12'3210.8 100 / 101021.0 0.5 18.0 20.0
2017-Sep-18 07:00N 41°48' W 069°36'88 8.0 080 / 211021.0 5.4 18.0 22.0
2017-Sep-17 20:00N 40°24' W 070°12'8310.3 120 / 181020.0 0.0 21.0 22.0
2017-Sep-17 12:00N 40°18' W 072°00'18 9.2 080 / 101021.0 2.2 19.0 21.0
2017-Sep-17 10:00N 40°18' W 072°24'3210.7 050 / 151021.0 5.4 21.0 21.0
2017-Sep-17 07:00N 40°18' W 073°06'1219.7 030 / 41021.010.8 20.0 22.0
2017-Sep-17 06:24N 40°22' W 073°20'410.3
2017-Sep-17 06:00N 40°23' W 073°25'910.4
2017-Sep-17 05:08N 40°25' W 073°37'210.5
2017-Sep-17 04:58N 40°25' W 073°39'510.8
2017-Sep-17 04:30N 40°26' W 073°46'612.2
2017-Sep-17 04:00N 40°29' W 073°53'815.9
2017-Sep-17 03:30N 40°33' W 074°02'714.4
2017-Sep-17 03:01N 40°40' W 074°03'611.9
2017-Sep-17 02:30N 40°46' W 074°00'0 0.6
2017-Sep-17 02:00N 40°46' W 073°60'0 0.0
2017-Sep-17 01:30N 40°46' W 073°60'0 0.0
2017-Sep-17 01:00N 40°46' W 073°60'0 0.0
2017-Sep-17 00:27N 40°46' W 073°60'0 0.0
2017-Sep-17 00:00N 40°46' W 073°60'0 0.0
2017-Sep-16 23:30N 40°46' W 073°60'0 0.0
2017-Sep-16 23:00N 40°46' W 073°60'0 0.0
2017-Sep-16 22:30N 40°46' W 073°60'0 0.0
2017-Sep-16 22:00N 40°46' W 073°60'6729692113.5
2017-Sep-16 22:00N 40°42' E 074°00'672913716.9 160 / 101020.0 5.4 26.0 22.0
2017-Sep-16 21:30N 40°46' W 073°60'0 0.0
2017-Sep-16 20:57N 40°46' W 073°60'0 0.0
2017-Sep-16 20:30N 40°46' W 073°60'611.8
2017-Sep-16 20:00N 40°42' W 073°54'6147.9 010 / 41020.0 31.0 22.0
2017-Sep-16 19:57N 40°46' W 073°60'0 0.0
2017-Sep-16 19:30N 40°46' W 073°60'0 0.0
2017-Sep-16 19:00N 40°46' W 073°60'0 0.0
2017-Sep-16 18:30N 40°46' W 073°60'0 0.0
2017-Sep-16 18:00N 40°46' W 073°60'0 0.0
2017-Sep-16 17:30N 40°46' W 073°60'0 0.0
2017-Sep-16 17:00N 40°46' W 073°60'0 0.0
2017-Sep-16 16:30N 40°46' W 073°60'0 0.0
2017-Sep-16 16:00N 40°46' W 073°60'0 0.0
2017-Sep-16 15:30N 40°46' W 073°60'0 0.0
2017-Sep-16 15:00N 40°46' W 073°60'0 0.0
2017-Sep-16 14:30N 40°46' W 073°60'0 0.0
2017-Sep-16 14:00N 40°46' W 073°60'6635.0
2017-Sep-16 14:00N 40°42' W 073°54'612.2 040 / 51020.0 2.2 23.0 20.0
2017-Sep-16 13:30N 40°46' W 073°60'0 0.0
2017-Sep-16 12:57N 40°46' W 073°60'0 0.0
2017-Sep-16 12:30N 40°46' W 073°60'0 0.0
2017-Sep-16 12:00N 40°46' W 073°60'0 0.0
2017-Sep-16 11:30N 40°46' W 073°60'0 0.0
2017-Sep-16 11:00N 40°46' W 073°60'0 0.0
2017-Sep-16 10:30N 40°46' W 073°60'0 0.0
2017-Sep-16 10:00N 40°46' W 073°60'0 0.0
2017-Sep-16 09:30N 40°46' W 073°60'0 0.0
2017-Sep-16 09:00N 40°46' W 073°60'0 0.0
2017-Sep-16 08:30N 40°46' W 073°60'0 0.0
2017-Sep-16 08:00N 40°46' W 073°60'0 0.0
2017-Sep-16 07:30N 40°46' W 073°60'0 0.0
2017-Sep-16 07:00N 40°46' W 073°60'6653.8
2017-Sep-16 07:00N 40°42' W 073°54'612.2 010 / 61018.0 24.0 22.0
2017-Sep-16 06:30N 40°46' W 073°60'0 0.0
2017-Sep-16 06:00N 40°46' W 073°60'0 0.0
2017-Sep-16 05:30N 40°46' W 073°60'0 0.0
2017-Sep-16 05:00N 40°46' W 073°60'0 0.0
2017-Sep-16 04:30N 40°46' W 073°60'0 0.0
2017-Sep-16 03:54N 40°46' W 073°60'0 0.0
2017-Sep-16 03:30N 40°46' W 073°60'0 0.0
2017-Sep-16 03:00N 40°46' W 073°60'0 0.0
2017-Sep-16 02:30N 40°46' W 073°60'0 0.0
2017-Sep-16 02:00N 40°46' W 073°60'0 0.0
2017-Sep-16 01:30N 40°46' W 073°60'0 0.0
2017-Sep-16 01:00N 40°46' W 073°60'0 0.0
2017-Sep-16 00:30N 40°46' W 073°60'0 0.0
2017-Sep-16 00:00N 40°46' W 073°60'0 0.0
2017-Sep-15 23:30N 40°46' W 073°60'0 0.0
2017-Sep-15 23:00N 40°46' W 073°60'0 0.0
2017-Sep-15 22:27N 40°46' W 073°60'0 0.0
2017-Sep-15 22:00N 40°46' W 073°60'0 0.0
2017-Sep-15 21:30N 40°46' W 073°60'0 0.0
2017-Sep-15 21:00N 40°46' W 073°60'0 0.0
2017-Sep-15 20:30N 40°46' W 073°60'0 0.0
2017-Sep-15 20:00N 40°46' W 073°60'0 0.0
2017-Sep-15 19:30N 40°46' W 073°60'0 0.0
2017-Sep-15 19:00N 40°46' W 073°60'0 0.0
2017-Sep-15 18:30N 40°46' W 073°60'0 0.0
2017-Sep-15 18:00N 40°46' W 073°60'0 0.0
2017-Sep-15 17:30N 40°46' W 073°60'0 0.0
2017-Sep-15 17:00N 40°46' W 073°60'0 0.0
2017-Sep-15 16:30N 40°46' W 073°60'0 0.0
2017-Sep-15 16:00N 40°46' W 073°60'0 0.0
2017-Sep-15 15:27N 40°46' W 073°60'0 0.0
2017-Sep-15 15:00N 40°46' W 073°60'0 0.0
2017-Sep-15 14:30N 40°46' W 073°60'0 0.0
2017-Sep-15 14:00N 40°46' W 073°60'0 0.0
2017-Sep-15 13:30N 40°46' W 073°60'0 0.0
2017-Sep-15 13:00N 40°46' W 073°60'0 0.0
2017-Sep-15 12:30N 40°46' W 073°60'0 0.5
2017-Sep-15 12:00N 40°46' W 074°00'3 5.8
2017-Sep-15 11:31N 40°43' W 074°01'612.4
2017-Sep-15 11:01N 40°37' W 074°03'10583.2
2017-Sep-15 11:00N 40°30' W 073°54'3 6.9 280 / 101013.0 21.0 20.0
2017-Sep-15 10:30N 40°31' W 073°58'815.4
2017-Sep-15 10:00N 40°27' W 073°49'711.6
2017-Sep-15 09:25N 40°27' W 073°40'1112.9
2017-Sep-15 08:33N 40°28' W 073°26'8710.8
2017-Sep-15 00:29N 40°55' W 071°37'25 7.2
2017-Sep-14 21:00N 41°18' W 071°24'9 1.2 240 / 151012.0 5.4 21.0 20.0
2017-Sep-14 13:23N 41°27' W 071°23'5917.4
2017-Sep-14 10:00N 40°48' W 070°24'88 9.7 230 / 181010.0 0.3 17.0 19.0
2017-Sep-14 00:53N 42°14' W 070°00'819.4
2017-Sep-14 00:29N 42°18' W 070°09'1021.6
2017-Sep-14 00:00N 42°19' W 070°23'1020.8
2017-Sep-13 23:30N 42°20' W 070°37'918.8
2017-Sep-13 23:00N 42°23' W 070°49'510.8
2017-Sep-13 22:30N 42°21' W 070°56'4 7.3
2017-Sep-13 22:00N 42°21' W 071°01'1 1.1
2017-Sep-13 21:29N 42°21' W 071°02'0 0.0
2017-Sep-13 20:56N 42°21' W 071°02'0 0.0
2017-Sep-13 20:29N 42°21' W 071°02'0 0.0
2017-Sep-13 19:59N 42°21' W 071°02'0 0.0
2017-Sep-13 19:29N 42°21' W 071°02'0 0.0
2017-Sep-13 18:53N 42°21' W 071°02'0 0.0
2017-Sep-13 18:29N 42°21' W 071°02'0 0.0
2017-Sep-13 17:59N 42°21' W 071°02'0 0.0
2017-Sep-13 17:29N 42°21' W 071°02'0 0.0
2017-Sep-13 16:59N 42°21' W 071°02'0 0.0
2017-Sep-13 16:29N 42°21' W 071°02'0 0.0
2017-Sep-13 15:59N 42°21' W 071°02'0 0.0
2017-Sep-13 15:29N 42°21' W 071°02'0 0.0
2017-Sep-13 14:59N 42°21' W 071°02'0 0.0
2017-Sep-13 14:29N 42°21' W 071°02'0 0.0
2017-Sep-13 13:59N 42°21' W 071°02'0 0.0
2017-Sep-13 13:29N 42°21' W 071°02'0 0.0
2017-Sep-13 12:59N 42°21' W 071°02'0 0.0
2017-Sep-13 12:29N 42°21' W 071°02'0 0.0
2017-Sep-13 11:59N 42°21' W 071°02'0 0.3
2017-Sep-13 11:30N 42°21' W 071°02'3 6.2
2017-Sep-13 11:01N 42°20' W 070°58'612.9
2017-Sep-13 10:31N 42°24' W 070°50'510.6
2017-Sep-13 10:01N 42°27' W 070°45'612.5
2017-Sep-13 09:31N 42°30' W 070°38'612.6
2017-Sep-13 09:01N 42°34' W 070°31'612.8
2017-Sep-13 08:31N 42°38' W 070°24'612.6
2017-Sep-13 08:00N 42°42' W 070°17'612.6
2017-Sep-13 07:31N 42°46' W 070°11'612.4
2017-Sep-13 07:00N 42°50' W 070°04'713.9
2017-Sep-13 06:30N 42°54' W 069°56'915.7
2017-Sep-13 05:58N 43°00' W 069°48'714.8
2017-Sep-13 05:30N 43°05' W 069°41'714.7
2017-Sep-13 05:00N 43°09' W 069°34'3215.9
2017-Sep-13 03:00N 43°30' W 069°00'912.2 310 / 261009.0 15.0 6.912.0
2017-Sep-13 02:15N 43°36' W 068°51'414.7
2017-Sep-13 02:00N 43°39' W 068°47'3464.0
2017-Sep-13 02:00N 43°36' W 068°48'1817.7 290 / 281009.027.0 15.0 9.212.0
2017-Sep-13 01:00N 43°48' W 068°30'1414.3 270 / 271009.0 15.0 9.212.0
2017-Sep-13 00:00N 43°54' W 068°12'65 3.8 270 / 211009.010.8 15.0 9.212.0
2017-Sep-12 07:00N 43°30' W 066°48'1414.4
2017-Sep-12 06:00N 43°24' W 066°30'5117.1
2017-Sep-12 03:00N 43°06' W 065°24'1918.5 330 / 241011.010.8 16.010.417.0
2017-Sep-12 02:00N 43°12' W 065°00'2121.2 330 / 261011.010.8 16.010.417.0
2017-Sep-12 01:00N 43°24' W 064°36'2121.1 340 / 331011.010.8 16.010.417.0
2017-Sep-12 00:00N 43°36' W 064°12'5016.5 340 / 331011.010.8 16.010.417.0
2017-Sep-11 21:00N 44°00' W 063°12'2524.7 350 / 401010.0 5.4 17.0 18.0
2017-Sep-11 20:00N 44°12' W 062°42'7919.7 350 / 401010.0 5.4 17.0 18.0
2017-Sep-11 16:00N 44°42' W 061°00'1817.5 350 / 411011.0 5.4 14.0 8.018.0
2017-Sep-11 15:00N 44°54' W 060°42'1717.5 340 / 371011.0 5.4 14.0 8.018.0
2017-Sep-11 14:00N 45°06' W 060°24'2120.7 340 / 421011.0 5.4 14.0 8.018.0
2017-Sep-11 13:00N 45°18' W 060°00'   350 / 351012.0 5.4 15.0 18.0
Track history (hours):
 
Tides and Currents Weather Stations Pressure Air Temp Water Temp Dewpoint Dewpoint Depression Visibility Wind Speed Wind Dir Waves Ship Positions

Crystal Serenity

Operator: Crystal Cruises

Last reported at 2017-Sep-21 11:00 UTC. Time now 2017-Sep-22 06:27 UTC.
Position N 44°18' W 068°06'.

Length 250 m; draft 7.5 m.

Type: Passenger vessel. MMSI: 311536000.

Wind from 040 at 15 knots

Barometer 1017.0 mb
Air temperature 17.0 ° C
Visibility: greater than 5.4 NM
Water temperature 14.0 ° C

Date/timePositionNaut miles runAvg speedWind from/ knotsBaromVisibWave heightAir tempDewpointWater temp
2017-Sep-21 11:00N 44°18' W 068°06'98 3.9 040 / 151017.0 5.4 17.0 14.0
2017-Sep-20 10:00N 43°24' W 070°00'622.0 040 / 251017.0 0.5 17.0 18.0
2017-Sep-20 09:44N 43°19' W 069°58'1813.0
2017-Sep-20 08:22N 43°01' W 069°56'513.1
2017-Sep-20 08:00N 42°56' W 069°59'713.0
2017-Sep-20 07:26N 42°52' W 070°07'613.2
2017-Sep-20 07:00N 42°49' W 070°13'713.5
2017-Sep-20 06:30N 42°44' W 070°19'713.4
2017-Sep-20 06:00N 42°39' W 070°25'713.4
2017-Sep-20 05:30N 42°34' W 070°32'713.4
2017-Sep-20 05:00N 42°30' W 070°39'713.3
2017-Sep-20 04:30N 42°26' W 070°46'611.3
2017-Sep-20 04:01N 42°23' W 070°53'611.4
2017-Sep-20 03:30N 42°20' W 070°59'2 3.5
2017-Sep-20 03:00N 42°21' W 071°02'0 0.0
2017-Sep-20 02:30N 42°21' W 071°02'0 0.0
2017-Sep-20 02:00N 42°21' W 071°02'0 0.0
2017-Sep-20 01:30N 42°21' W 071°02'0 0.0
2017-Sep-20 01:00N 42°21' W 071°02'0 0.0
2017-Sep-20 00:30N 42°21' W 071°02'0 0.0
2017-Sep-20 00:00N 42°21' W 071°02'0 0.0
2017-Sep-19 23:30N 42°21' W 071°02'0 0.0
2017-Sep-19 23:00N 42°21' W 071°02'31149.6
2017-Sep-19 23:00N 42°18' W 071°00'3 5.8 030 / 101017.0 2.2 17.0 17.0
2017-Sep-19 22:30N 42°21' W 071°02'0 0.0
2017-Sep-19 22:00N 42°21' W 071°02'31034.6
2017-Sep-19 22:00N 42°18' W 071°00'3 5.8 1017.0 5.4 18.0 17.0
2017-Sep-19 21:30N 42°21' W 071°02'0 0.0
2017-Sep-19 21:00N 42°21' W 071°02'0 0.0
2017-Sep-19 20:30N 42°21' W 071°02'0 0.0
2017-Sep-19 20:00N 42°21' W 071°02'0 0.0
2017-Sep-19 19:30N 42°21' W 071°02'0 0.0
2017-Sep-19 19:00N 42°21' W 071°02'31148.8
2017-Sep-19 19:00N 42°18' W 071°00'3 5.8 1017.0
2017-Sep-19 18:30N 42°21' W 071°02'0 0.0
2017-Sep-19 18:00N 42°21' W 071°02'0 0.0
2017-Sep-19 17:30N 42°21' W 071°02'0 0.0
2017-Sep-19 17:00N 42°21' W 071°02'0 0.0
2017-Sep-19 16:30N 42°21' W 071°02'0 0.0
2017-Sep-19 16:00N 42°21' W 071°02'0 0.0
2017-Sep-19 15:30N 42°21' W 071°02'0 0.0
2017-Sep-19 14:59N 42°21' W 071°02'0 0.0
2017-Sep-19 14:29N 42°21' W 071°02'0 0.0
2017-Sep-19 13:59N 42°21' W 071°02'0 0.0
2017-Sep-19 13:26N 42°21' W 071°02'0 0.0
2017-Sep-19 12:56N 42°21' W 071°02'0 0.0
2017-Sep-19 12:29N 42°21' W 071°02'0 0.0
2017-Sep-19 12:01N 42°21' W 071°02'1 1.8
2017-Sep-19 11:31N 42°20' W 071°00'510.2
2017-Sep-19 11:01N 42°23' W 070°54'3 6.3
2017-Sep-19 10:31N 42°24' W 070°50'510.4
2017-Sep-19 10:00N 42°23' W 070°43'510.8
2017-Sep-19 09:30N 42°22' W 070°36'510.6
2017-Sep-19 09:00N 42°22' W 070°29'510.3
2017-Sep-19 08:31N 42°21' W 070°22'510.0
2017-Sep-19 08:01N 42°20' W 070°15'4209.1
2017-Sep-19 08:00N 42°18' W 070°12'3 6.3 030 / 141020.0 2.2 18.0 20.0
2017-Sep-19 07:30N 42°20' W 070°09'5 9.7
2017-Sep-19 07:00N 42°20' W 070°02'510.0
2017-Sep-19 06:29N 42°20' W 069°55'810.1
2017-Sep-19 05:43N 42°20' W 069°45'210.1
2017-Sep-19 05:29N 42°18' W 069°43'5 8.3
2017-Sep-19 04:55N 42°13' W 069°42'510.1
2017-Sep-19 04:27N 42°11' W 069°48'610.2
2017-Sep-19 03:54N 42°08' W 069°54'4 9.5
2017-Sep-19 03:27N 42°07' W 069°60'510.2
2017-Sep-19 03:00N 42°08' W 070°06'510.0
2017-Sep-19 02:27N 42°07' W 070°13'4 9.5
2017-Sep-19 02:00N 42°05' W 070°18'6 2.5
2017-Sep-18 23:32N 42°02' W 070°10'0 0.2
2017-Sep-18 23:29N 42°02' W 070°10'4 8.1
2017-Sep-18 23:00N 42°00' W 070°06'418.1 080 / 151019.0 0.5 19.0 20.0
2017-Sep-18 22:47N 42°02' W 070°10'0 0.0
2017-Sep-18 21:50N 42°02' W 070°10'0 0.0
2017-Sep-18 21:26N 42°02' W 070°10'4 1.1
2017-Sep-18 18:00N 42°00' W 070°06'7 0.9 080 / 131021.0 20.0 21.0
2017-Sep-18 10:00N 42°06' W 070°12'3210.8 100 / 101021.0 0.5 18.0 20.0
2017-Sep-18 07:00N 41°48' W 069°36'88 8.0 080 / 211021.0 5.4 18.0 22.0
2017-Sep-17 20:00N 40°24' W 070°12'8310.3 120 / 181020.0 0.0 21.0 22.0
2017-Sep-17 12:00N 40°18' W 072°00'18 9.2 080 / 101021.0 2.2 19.0 21.0
2017-Sep-17 10:00N 40°18' W 072°24'3210.7 050 / 151021.0 5.4 21.0 21.0
2017-Sep-17 07:00N 40°18' W 073°06'1219.7 030 / 41021.010.8 20.0 22.0
2017-Sep-17 06:24N 40°22' W 073°20'410.3
2017-Sep-17 06:00N 40°23' W 073°25'910.4
2017-Sep-17 05:08N 40°25' W 073°37'210.5
2017-Sep-17 04:58N 40°25' W 073°39'510.8
2017-Sep-17 04:30N 40°26' W 073°46'612.2
2017-Sep-17 04:00N 40°29' W 073°53'815.9
2017-Sep-17 03:30N 40°33' W 074°02'714.4
2017-Sep-17 03:01N 40°40' W 074°03'611.9
2017-Sep-17 02:30N 40°46' W 074°00'0 0.6
2017-Sep-17 02:00N 40°46' W 073°60'0 0.0
2017-Sep-17 01:30N 40°46' W 073°60'0 0.0
2017-Sep-17 01:00N 40°46' W 073°60'0 0.0
2017-Sep-17 00:27N 40°46' W 073°60'0 0.0
2017-Sep-17 00:00N 40°46' W 073°60'0 0.0
2017-Sep-16 23:30N 40°46' W 073°60'0 0.0
2017-Sep-16 23:00N 40°46' W 073°60'0 0.0
2017-Sep-16 22:30N 40°46' W 073°60'0 0.0
2017-Sep-16 22:00N 40°46' W 073°60'6729692113.5
2017-Sep-16 22:00N 40°42' E 074°00'672913716.9 160 / 101020.0 5.4 26.0 22.0
2017-Sep-16 21:30N 40°46' W 073°60'0 0.0
2017-Sep-16 20:57N 40°46' W 073°60'0 0.0
2017-Sep-16 20:30N 40°46' W 073°60'611.8
2017-Sep-16 20:00N 40°42' W 073°54'6147.9 010 / 41020.0 31.0 22.0
2017-Sep-16 19:57N 40°46' W 073°60'0 0.0
2017-Sep-16 19:30N 40°46' W 073°60'0 0.0
2017-Sep-16 19:00N 40°46' W 073°60'0 0.0
2017-Sep-16 18:30N 40°46' W 073°60'0 0.0
2017-Sep-16 18:00N 40°46' W 073°60'0 0.0
2017-Sep-16 17:30N 40°46' W 073°60'0 0.0
2017-Sep-16 17:00N 40°46' W 073°60'0 0.0
2017-Sep-16 16:30N 40°46' W 073°60'0 0.0
2017-Sep-16 16:00N 40°46' W 073°60'0 0.0
2017-Sep-16 15:30N 40°46' W 073°60'0 0.0
2017-Sep-16 15:00N 40°46' W 073°60'0 0.0
2017-Sep-16 14:30N 40°46' W 073°60'0 0.0
2017-Sep-16 14:00N 40°46' W 073°60'6635.0
2017-Sep-16 14:00N 40°42' W 073°54'612.2 040 / 51020.0 2.2 23.0 20.0
2017-Sep-16 13:30N 40°46' W 073°60'0 0.0
2017-Sep-16 12:57N 40°46' W 073°60'0 0.0
2017-Sep-16 12:30N 40°46' W 073°60'0 0.0
2017-Sep-16 12:00N 40°46' W 073°60'0 0.0
2017-Sep-16 11:30N 40°46' W 073°60'0 0.0
2017-Sep-16 11:00N 40°46' W 073°60'0 0.0
2017-Sep-16 10:30N 40°46' W 073°60'0 0.0
2017-Sep-16 10:00N 40°46' W 073°60'0 0.0
2017-Sep-16 09:30N 40°46' W 073°60'0 0.0
2017-Sep-16 09:00N 40°46' W 073°60'0 0.0
2017-Sep-16 08:30N 40°46' W 073°60'0 0.0
2017-Sep-16 08:00N 40°46' W 073°60'0 0.0
2017-Sep-16 07:30N 40°46' W 073°60'0 0.0
2017-Sep-16 07:00N 40°46' W 073°60'6653.8
2017-Sep-16 07:00N 40°42' W 073°54'612.2 010 / 61018.0 24.0 22.0
2017-Sep-16 06:30N 40°46' W 073°60'0 0.0
2017-Sep-16 06:00N 40°46' W 073°60'0 0.0
2017-Sep-16 05:30N 40°46' W 073°60'0 0.0
2017-Sep-16 05:00N 40°46' W 073°60'0 0.0
2017-Sep-16 04:30N 40°46' W 073°60'0 0.0
2017-Sep-16 03:54N 40°46' W 073°60'0 0.0
2017-Sep-16 03:30N 40°46' W 073°60'0 0.0
2017-Sep-16 03:00N 40°46' W 073°60'0 0.0
2017-Sep-16 02:30N 40°46' W 073°60'0 0.0
2017-Sep-16 02:00N 40°46' W 073°60'0 0.0
2017-Sep-16 01:30N 40°46' W 073°60'0 0.0
2017-Sep-16 01:00N 40°46' W 073°60'0 0.0
2017-Sep-16 00:30N 40°46' W 073°60'0 0.0
2017-Sep-16 00:00N 40°46' W 073°60'0 0.0
2017-Sep-15 23:30N 40°46' W 073°60'0 0.0
2017-Sep-15 23:00N 40°46' W 073°60'0 0.0
2017-Sep-15 22:27N 40°46' W 073°60'0 0.0
2017-Sep-15 22:00N 40°46' W 073°60'0 0.0
2017-Sep-15 21:30N 40°46' W 073°60'0 0.0
2017-Sep-15 21:00N 40°46' W 073°60'0 0.0
2017-Sep-15 20:30N 40°46' W 073°60'0 0.0
2017-Sep-15 20:00N 40°46' W 073°60'0 0.0
2017-Sep-15 19:30N 40°46' W 073°60'0 0.0
2017-Sep-15 19:00N 40°46' W 073°60'0 0.0
2017-Sep-15 18:30N 40°46' W 073°60'0 0.0
2017-Sep-15 18:00N 40°46' W 073°60'0 0.0
2017-Sep-15 17:30N 40°46' W 073°60'0 0.0
2017-Sep-15 17:00N 40°46' W 073°60'0 0.0
2017-Sep-15 16:30N 40°46' W 073°60'0 0.0
2017-Sep-15 16:00N 40°46' W 073°60'0 0.0
2017-Sep-15 15:27N 40°46' W 073°60'0 0.0
2017-Sep-15 15:00N 40°46' W 073°60'0 0.0
2017-Sep-15 14:30N 40°46' W 073°60'0 0.0
2017-Sep-15 14:00N 40°46' W 073°60'0 0.0
2017-Sep-15 13:30N 40°46' W 073°60'0 0.0
2017-Sep-15 13:00N 40°46' W 073°60'0 0.0
2017-Sep-15 12:30N 40°46' W 073°60'0 0.5
2017-Sep-15 12:00N 40°46' W 074°00'3 5.8
2017-Sep-15 11:31N 40°43' W 074°01'612.4
2017-Sep-15 11:01N 40°37' W 074°03'10583.2
2017-Sep-15 11:00N 40°30' W 073°54'3 6.9 280 / 101013.0 21.0 20.0
2017-Sep-15 10:30N 40°31' W 073°58'815.4
2017-Sep-15 10:00N 40°27' W 073°49'711.6
2017-Sep-15 09:25N 40°27' W 073°40'1112.9
2017-Sep-15 08:33N 40°28' W 073°26'8710.8
2017-Sep-15 00:29N 40°55' W 071°37'25 7.2
2017-Sep-14 21:00N 41°18' W 071°24'9 1.2 240 / 151012.0 5.4 21.0 20.0
2017-Sep-14 13:23N 41°27' W 071°23'5917.4
2017-Sep-14 10:00N 40°48' W 070°24'88 9.7 230 / 181010.0 0.3 17.0 19.0
2017-Sep-14 00:53N 42°14' W 070°00'819.4
2017-Sep-14 00:29N 42°18' W 070°09'1021.6
2017-Sep-14 00:00N 42°19' W 070°23'1020.8
2017-Sep-13 23:30N 42°20' W 070°37'918.8
2017-Sep-13 23:00N 42°23' W 070°49'510.8
2017-Sep-13 22:30N 42°21' W 070°56'4 7.3
2017-Sep-13 22:00N 42°21' W 071°01'1 1.1
2017-Sep-13 21:29N 42°21' W 071°02'0 0.0
2017-Sep-13 20:56N 42°21' W 071°02'0 0.0
2017-Sep-13 20:29N 42°21' W 071°02'0 0.0
2017-Sep-13 19:59N 42°21' W 071°02'0 0.0
2017-Sep-13 19:29N 42°21' W 071°02'0 0.0
2017-Sep-13 18:53N 42°21' W 071°02'0 0.0
2017-Sep-13 18:29N 42°21' W 071°02'0 0.0
2017-Sep-13 17:59N 42°21' W 071°02'0 0.0
2017-Sep-13 17:29N 42°21' W 071°02'0 0.0
2017-Sep-13 16:59N 42°21' W 071°02'0 0.0
2017-Sep-13 16:29N 42°21' W 071°02'0 0.0
2017-Sep-13 15:59N 42°21' W 071°02'0 0.0
2017-Sep-13 15:29N 42°21' W 071°02'0 0.0
2017-Sep-13 14:59N 42°21' W 071°02'0 0.0
2017-Sep-13 14:29N 42°21' W 071°02'0 0.0
2017-Sep-13 13:59N 42°21' W 071°02'0 0.0
2017-Sep-13 13:29N 42°21' W 071°02'0 0.0
2017-Sep-13 12:59N 42°21' W 071°02'0 0.0
2017-Sep-13 12:29N 42°21' W 071°02'0 0.0
2017-Sep-13 11:59N 42°21' W 071°02'0 0.3
2017-Sep-13 11:30N 42°21' W 071°02'3 6.2
2017-Sep-13 11:01N 42°20' W 070°58'612.9
2017-Sep-13 10:31N 42°24' W 070°50'510.6
2017-Sep-13 10:01N 42°27' W 070°45'612.5
2017-Sep-13 09:31N 42°30' W 070°38'612.6
2017-Sep-13 09:01N 42°34' W 070°31'612.8
2017-Sep-13 08:31N 42°38' W 070°24'612.6
2017-Sep-13 08:00N 42°42' W 070°17'612.6
2017-Sep-13 07:31N 42°46' W 070°11'612.4
2017-Sep-13 07:00N 42°50' W 070°04'713.9
2017-Sep-13 06:30N 42°54' W 069°56'915.7
2017-Sep-13 05:58N 43°00' W 069°48'714.8
2017-Sep-13 05:30N 43°05' W 069°41'714.7
2017-Sep-13 05:00N 43°09' W 069°34'3215.9
2017-Sep-13 03:00N 43°30' W 069°00'912.2 310 / 261009.0 15.0 6.912.0
2017-Sep-13 02:15N 43°36' W 068°51'414.7
2017-Sep-13 02:00N 43°39' W 068°47'3464.0
2017-Sep-13 02:00N 43°36' W 068°48'1817.7 290 / 281009.027.0 15.0 9.212.0
2017-Sep-13 01:00N 43°48' W 068°30'1414.3 270 / 271009.0 15.0 9.212.0
2017-Sep-13 00:00N 43°54' W 068°12'65 3.8 270 / 211009.010.8 15.0 9.212.0
2017-Sep-12 07:00N 43°30' W 066°48'1414.4
2017-Sep-12 06:00N 43°24' W 066°30'5117.1
2017-Sep-12 03:00N 43°06' W 065°24'1918.5 330 / 241011.010.8 16.010.417.0
2017-Sep-12 02:00N 43°12' W 065°00'2121.2 330 / 261011.010.8 16.010.417.0
2017-Sep-12 01:00N 43°24' W 064°36'2121.1 340 / 331011.010.8 16.010.417.0
2017-Sep-12 00:00N 43°36' W 064°12'5016.5 340 / 331011.010.8 16.010.417.0
2017-Sep-11 21:00N 44°00' W 063°12'2524.7 350 / 401010.0 5.4 17.0 18.0
2017-Sep-11 20:00N 44°12' W 062°42'7919.7 350 / 401010.0 5.4 17.0 18.0
2017-Sep-11 16:00N 44°42' W 061°00'1817.5 350 / 411011.0 5.4 14.0 8.018.0
2017-Sep-11 15:00N 44°54' W 060°42'1717.5 340 / 371011.0 5.4 14.0 8.018.0
2017-Sep-11 14:00N 45°06' W 060°24'2120.7 340 / 421011.0 5.4 14.0 8.018.0
2017-Sep-11 13:00N 45°18' W 060°00'   350 / 351012.0 5.4 15.0 18.0

Dump ship's entire track history